Fisher Golf — FUGD — position and weather

sailwx.info

Track history (hours):
 
Tides and Currents Weather Stations Pressure Air Temp Water Temp Dewpoint Dewpoint Depression Visibility Wind Speed Wind Dir Waves Ship Positions

Fisher Golf

Last reported at 2016-Mar-21 14:24 UTC. Time now 2016-Apr-29 04:07 UTC.
Position N 47°44' W 003°22'.
Warning: this ship's position is 38 days out of date.

Length 20 m.

Type: Fishing. MMSI: 228239000.

Date/timePositionNaut miles runAvg speedWind from/ knotsBaromVisibWave heightAir tempDewpointWater temp
2016-Mar-21 14:24N 47°44' W 003°22'0 0.0
2016-Mar-21 11:16N 47°44' W 003°22'0 0.0
2016-Mar-21 10:33N 47°44' W 003°22'0 0.0
2016-Mar-21 09:33N 47°44' W 003°22'0 0.0
2016-Mar-21 08:33N 47°44' W 003°22'0 0.0
2016-Mar-21 07:33N 47°44' W 003°22'0 0.0
2016-Mar-21 06:34N 47°44' W 003°22'0 0.0
2016-Mar-21 05:33N 47°44' W 003°22'0 0.0
2016-Mar-21 04:33N 47°44' W 003°22'0 0.0
2016-Mar-21 03:33N 47°44' W 003°22'0 0.0
2016-Mar-21 02:33N 47°44' W 003°22'5 5.0
2016-Mar-21 01:33N 47°39' W 003°22'0 0.5
2016-Mar-21 00:33N 47°39' W 003°22'0 0.4
2016-Mar-20 23:33N 47°39' W 003°21'0 0.4
2016-Mar-20 22:33N 47°39' W 003°21'3 2.9
2016-Mar-20 21:33N 47°37' W 003°23'1 0.5
2016-Mar-20 20:33N 47°37' W 003°23'1 0.7
2016-Mar-20 19:33N 47°38' W 003°22'1 1.3
2016-Mar-20 18:33N 47°37' W 003°23'1 0.5
2016-Mar-20 17:33N 47°36' W 003°22'1 0.9
2016-Mar-20 16:33N 47°37' W 003°21'9 8.7
2016-Mar-20 15:33N 47°30' W 003°13'9 9.3
2016-Mar-20 14:33N 47°23' W 003°04'1010.0
2016-Mar-20 13:32N 47°16' W 002°53'46 9.3
2016-Mar-20 08:33N 46°40' W 002°11'9 9.5
2016-Mar-20 07:33N 46°32' W 002°03'10 9.6
2016-Mar-20 06:33N 46°24' W 001°55'9 9.5
2016-Mar-20 05:33N 46°16' W 001°47'19 9.3
2016-Mar-20 03:33N 46°02' W 001°30'  
2016-Mar-16 00:10N 45°55' W 001°20'0 0.0
2016-Mar-15 23:33N 45°55' W 001°20'0 0.0
2016-Mar-15 22:33N 45°55' W 001°20'  
Track history (hours):
 
Tides and Currents Weather Stations Pressure Air Temp Water Temp Dewpoint Dewpoint Depression Visibility Wind Speed Wind Dir Waves Ship Positions

Fisher Golf

Last reported at 2016-Mar-21 14:24 UTC. Time now 2016-Apr-29 04:07 UTC.
Position N 47°44' W 003°22'.
Warning: this ship's position is 38 days out of date.

Length 20 m.

Type: Fishing. MMSI: 228239000.

Date/timePositionNaut miles runAvg speedWind from/ knotsBaromVisibWave heightAir tempDewpointWater temp
2016-Mar-21 14:24N 47°44' W 003°22'0 0.0
2016-Mar-21 11:16N 47°44' W 003°22'0 0.0
2016-Mar-21 10:33N 47°44' W 003°22'0 0.0
2016-Mar-21 09:33N 47°44' W 003°22'0 0.0
2016-Mar-21 08:33N 47°44' W 003°22'0 0.0
2016-Mar-21 07:33N 47°44' W 003°22'0 0.0
2016-Mar-21 06:34N 47°44' W 003°22'0 0.0
2016-Mar-21 05:33N 47°44' W 003°22'0 0.0
2016-Mar-21 04:33N 47°44' W 003°22'0 0.0
2016-Mar-21 03:33N 47°44' W 003°22'0 0.0
2016-Mar-21 02:33N 47°44' W 003°22'5 5.0
2016-Mar-21 01:33N 47°39' W 003°22'0 0.5
2016-Mar-21 00:33N 47°39' W 003°22'0 0.4
2016-Mar-20 23:33N 47°39' W 003°21'0 0.4
2016-Mar-20 22:33N 47°39' W 003°21'3 2.9
2016-Mar-20 21:33N 47°37' W 003°23'1 0.5
2016-Mar-20 20:33N 47°37' W 003°23'1 0.7
2016-Mar-20 19:33N 47°38' W 003°22'1 1.3
2016-Mar-20 18:33N 47°37' W 003°23'1 0.5
2016-Mar-20 17:33N 47°36' W 003°22'1 0.9
2016-Mar-20 16:33N 47°37' W 003°21'9 8.7
2016-Mar-20 15:33N 47°30' W 003°13'9 9.3
2016-Mar-20 14:33N 47°23' W 003°04'1010.0
2016-Mar-20 13:32N 47°16' W 002°53'46 9.3
2016-Mar-20 08:33N 46°40' W 002°11'9 9.5
2016-Mar-20 07:33N 46°32' W 002°03'10 9.6
2016-Mar-20 06:33N 46°24' W 001°55'9 9.5
2016-Mar-20 05:33N 46°16' W 001°47'19 9.3
2016-Mar-20 03:33N 46°02' W 001°30'  
2016-Mar-16 00:10N 45°55' W 001°20'0 0.0
2016-Mar-15 23:33N 45°55' W 001°20'0 0.0
2016-Mar-15 22:33N 45°55' W 001°20'  

Dump ship's entire track history